sensor_id;sensor_type;location;lat;lon;timestamp;P1;durP1;ratioP1;P2;durP2;ratioP2
64738;SDS011;51175;51.186;0.276;2023-04-08T00:00:01;20.27;;;13.77;;
64738;SDS011;51175;51.186;0.276;2023-04-08T00:00:31;18.90;;;12.57;;
64738;SDS011;51175;51.186;0.276;2023-04-08T00:01:02;19.65;;;12.80;;
64738;SDS011;51175;51.186;0.276;2023-04-08T00:01:32;17.58;;;12.15;;
64738;SDS011;51175;51.186;0.276;2023-04-08T00:02:02;19.33;;;12.43;;
64738;SDS011;51175;51.186;0.276;2023-04-08T00:02:33;17.85;;;12.07;;
64738;SDS011;51175;51.186;0.276;2023-04-08T00:03:03;19.45;;;12.35;;
64738;SDS011;51175;51.186;0.276;2023-04-08T00:03:34;20.08;;;12.80;;
64738;SDS011;51175;51.186;0.276;2023-04-08T00:04:04;18.67;;;12.60;;
64738;SDS011;51175;51.186;0.276;2023-04-08T00:04:35;21.15;;;13.07;;
64738;SDS011;51175;51.186;0.276;2023-04-08T00:05:05;18.02;;;12.10;;
64738;SDS011;51175;51.186;0.276;2023-04-08T00:05:36;19.52;;;12.10;;
64738;SDS011;51175;51.186;0.276;2023-04-08T00:06:06;19.35;;;12.25;;
64738;SDS011;51175;51.186;0.276;2023-04-08T00:06:37;16.27;;;11.23;;
64738;SDS011;51175;51.186;0.276;2023-04-08T00:07:07;17.83;;;11.98;;
64738;SDS011;51175;51.186;0.276;2023-04-08T00:07:38;18.88;;;12.07;;
64738;SDS011;51175;51.186;0.276;2023-04-08T00:08:08;20.52;;;13.07;;
64738;SDS011;51175;51.186;0.276;2023-04-08T00:08:38;23.45;;;12.07;;
64738;SDS011;51175;51.186;0.276;2023-04-08T00:09:09;16.40;;;11.52;;
64738;SDS011;51175;51.186;0.276;2023-04-08T00:09:39;17.42;;;11.82;;
64738;SDS011;51175;51.186;0.276;2023-04-08T00:10:10;18.48;;;12.35;;
64738;SDS011;51175;51.186;0.276;2023-04-08T00:10:40;17.27;;;11.15;;
64738;SDS011;51175;51.186;0.276;2023-04-08T00:11:11;16.60;;;11.45;;
64738;SDS011;51175;51.186;0.276;2023-04-08T00:11:41;17.17;;;11.23;;
64738;SDS011;51175;51.186;0.276;2023-04-08T00:12:12;15.93;;;11.25;;
64738;SDS011;51175;51.186;0.276;2023-04-08T00:12:42;16.60;;;11.32;;
64738;SDS011;51175;51.186;0.276;2023-04-08T00:13:12;16.27;;;11.32;;
64738;SDS011;51175;51.186;0.276;2023-04-08T00:13:43;16.52;;;11.32;;
64738;SDS011;51175;51.186;0.276;2023-04-08T00:14:14;18.00;;;11.80;;
64738;SDS011;51175;51.186;0.276;2023-04-08T00:14:45;15.57;;;10.95;;
64738;SDS011;51175;51.186;0.276;2023-04-08T00:15:15;14.77;;;9.98;;
64738;SDS011;51175;51.186;0.276;2023-04-08T00:15:45;15.55;;;11.25;;
64738;SDS011;51175;51.186;0.276;2023-04-08T00:16:16;17.00;;;10.23;;
64738;SDS011;51175;51.186;0.276;2023-04-08T00:16:46;15.93;;;10.65;;
64738;SDS011;51175;51.186;0.276;2023-04-08T00:17:17;15.48;;;11.13;;
64738;SDS011;51175;51.186;0.276;2023-04-08T00:17:47;16.45;;;10.35;;
64738;SDS011;51175;51.186;0.276;2023-04-08T00:18:17;15.32;;;11.05;;
64738;SDS011;51175;51.186;0.276;2023-04-08T00:18:48;17.45;;;10.75;;
64738;SDS011;51175;51.186;0.276;2023-04-08T00:19:18;16.98;;;11.82;;
64738;SDS011;51175;51.186;0.276;2023-04-08T00:19:48;17.55;;;10.98;;
64738;SDS011;51175;51.186;0.276;2023-04-08T00:20:22;15.38;;;11.13;;
64738;SDS011;51175;51.186;0.276;2023-04-08T00:20:53;16.98;;;10.18;;
64738;SDS011;51175;51.186;0.276;2023-04-08T00:21:23;16.00;;;10.30;;
64738;SDS011;51175;51.186;0.276;2023-04-08T00:21:54;14.50;;;9.75;;
64738;SDS011;51175;51.186;0.276;2023-04-08T00:22:24;13.27;;;9.88;;
64738;SDS011;51175;51.186;0.276;2023-04-08T00:22:55;15.80;;;9.85;;
64738;SDS011;51175;51.186;0.276;2023-04-08T00:23:25;14.70;;;10.35;;
64738;SDS011;51175;51.186;0.276;2023-04-08T00:23:55;15.10;;;11.23;;
64738;SDS011;51175;51.186;0.276;2023-04-08T00:24:26;17.30;;;10.70;;
64738;SDS011;51175;51.186;0.276;2023-04-08T00:24:56;14.75;;;9.77;;
64738;SDS011;51175;51.186;0.276;2023-04-08T00:25:27;14.38;;;9.35;;
64738;SDS011;51175;51.186;0.276;2023-04-08T00:25:57;13.48;;;8.55;;
64738;SDS011;51175;51.186;0.276;2023-04-08T00:26:28;16.02;;;10.73;;
64738;SDS011;51175;51.186;0.276;2023-04-08T00:26:58;16.13;;;10.52;;
64738;SDS011;51175;51.186;0.276;2023-04-08T00:27:29;18.30;;;10.25;;
64738;SDS011;51175;51.186;0.276;2023-04-08T00:27:59;15.50;;;9.05;;
64738;SDS011;51175;51.186;0.276;2023-04-08T00:28:29;14.73;;;9.75;;
64738;SDS011;51175;51.186;0.276;2023-04-08T00:29:00;14.98;;;9.95;;
64738;SDS011;51175;51.186;0.276;2023-04-08T00:29:30;13.32;;;8.65;;
64738;SDS011;51175;51.186;0.276;2023-04-08T00:30:01;14.75;;;9.05;;
64738;SDS011;51175;51.186;0.276;2023-04-08T00:30:32;14.48;;;9.93;;
64738;SDS011;51175;51.186;0.276;2023-04-08T00:31:02;15.68;;;9.30;;
64738;SDS011;51175;51.186;0.276;2023-04-08T00:31:33;15.13;;;10.35;;
64738;SDS011;51175;51.186;0.276;2023-04-08T00:32:03;14.70;;;9.05;;
64738;SDS011;51175;51.186;0.276;2023-04-08T00:32:34;12.60;;;8.82;;
64738;SDS011;51175;51.186;0.276;2023-04-08T00:33:05;14.27;;;8.98;;
64738;SDS011;51175;51.186;0.276;2023-04-08T00:33:36;13.07;;;8.85;;
64738;SDS011;51175;51.186;0.276;2023-04-08T00:34:06;14.10;;;9.43;;
64738;SDS011;51175;51.186;0.276;2023-04-08T00:34:36;18.13;;;9.93;;
64738;SDS011;51175;51.186;0.276;2023-04-08T00:35:07;13.63;;;8.30;;
64738;SDS011;51175;51.186;0.276;2023-04-08T00:35:38;17.08;;;9.48;;
64738;SDS011;51175;51.186;0.276;2023-04-08T00:36:08;12.30;;;7.82;;
64738;SDS011;51175;51.186;0.276;2023-04-08T00:36:38;15.40;;;8.90;;
64738;SDS011;51175;51.186;0.276;2023-04-08T00:37:09;12.43;;;8.48;;
64738;SDS011;51175;51.186;0.276;2023-04-08T00:37:39;13.40;;;7.97;;
64738;SDS011;51175;51.186;0.276;2023-04-08T00:38:10;12.23;;;7.97;;
64738;SDS011;51175;51.186;0.276;2023-04-08T00:38:41;14.57;;;8.57;;
64738;SDS011;51175;51.186;0.276;2023-04-08T00:39:12;14.43;;;9.52;;
64738;SDS011;51175;51.186;0.276;2023-04-08T00:39:43;11.00;;;8.15;;
64738;SDS011;51175;51.186;0.276;2023-04-08T00:40:13;11.98;;;7.95;;
64738;SDS011;51175;51.186;0.276;2023-04-08T00:40:44;14.02;;;8.30;;
64738;SDS011;51175;51.186;0.276;2023-04-08T00:41:14;14.18;;;8.60;;
64738;SDS011;51175;51.186;0.276;2023-04-08T00:41:44;12.40;;;8.90;;
64738;SDS011;51175;51.186;0.276;2023-04-08T00:42:15;14.80;;;9.43;;
64738;SDS011;51175;51.186;0.276;2023-04-08T00:42:46;12.82;;;8.60;;
64738;SDS011;51175;51.186;0.276;2023-04-08T00:43:16;12.50;;;8.35;;
64738;SDS011;51175;51.186;0.276;2023-04-08T00:43:50;14.85;;;9.88;;
64738;SDS011;51175;51.186;0.276;2023-04-08T00:44:21;14.02;;;8.82;;
64738;SDS011;51175;51.186;0.276;2023-04-08T00:44:51;13.80;;;8.45;;
64738;SDS011;51175;51.186;0.276;2023-04-08T00:45:22;13.93;;;9.38;;
64738;SDS011;51175;51.186;0.276;2023-04-08T00:45:52;11.27;;;7.80;;
64738;SDS011;51175;51.186;0.276;2023-04-08T00:46:22;12.63;;;7.97;;
64738;SDS011;51175;51.186;0.276;2023-04-08T00:46:53;11.70;;;8.10;;
64738;SDS011;51175;51.186;0.276;2023-04-08T00:47:24;12.38;;;8.70;;
64738;SDS011;51175;51.186;0.276;2023-04-08T00:47:55;13.35;;;9.20;;
64738;SDS011;51175;51.186;0.276;2023-04-08T00:48:25;12.13;;;7.93;;
64738;SDS011;51175;51.186;0.276;2023-04-08T00:48:56;14.13;;;8.13;;
64738;SDS011;51175;51.186;0.276;2023-04-08T00:49:26;14.18;;;8.20;;
64738;SDS011;51175;51.186;0.276;2023-04-08T00:49:57;12.88;;;8.07;;
64738;SDS011;51175;51.186;0.276;2023-04-08T00:50:27;11.93;;;8.70;;
64738;SDS011;51175;51.186;0.276;2023-04-08T00:50:57;13.00;;;8.32;;
64738;SDS011;51175;51.186;0.276;2023-04-08T00:51:28;14.02;;;7.18;;
64738;SDS011;51175;51.186;0.276;2023-04-08T00:52:00;12.18;;;8.00;;
64738;SDS011;51175;51.186;0.276;2023-04-08T00:52:30;11.65;;;7.75;;
64738;SDS011;51175;51.186;0.276;2023-04-08T00:53:01;12.25;;;7.90;;
64738;SDS011;51175;51.186;0.276;2023-04-08T00:53:31;12.00;;;8.73;;
64738;SDS011;51175;51.186;0.276;2023-04-08T00:54:02;10.85;;;8.10;;
64738;SDS011;51175;51.186;0.276;2023-04-08T00:54:35;12.02;;;7.53;;
64738;SDS011;51175;51.186;0.276;2023-04-08T00:55:06;12.00;;;7.50;;
64738;SDS011;51175;51.186;0.276;2023-04-08T00:55:36;14.02;;;8.18;;
64738;SDS011;51175;51.186;0.276;2023-04-08T00:56:07;11.88;;;8.15;;
64738;SDS011;51175;51.186;0.276;2023-04-08T00:56:37;10.93;;;7.50;;
64738;SDS011;51175;51.186;0.276;2023-04-08T00:57:08;10.73;;;7.78;;
64738;SDS011;51175;51.186;0.276;2023-04-08T00:57:38;11.00;;;8.13;;
64738;SDS011;51175;51.186;0.276;2023-04-08T00:58:09;10.88;;;7.75;;
64738;SDS011;51175;51.186;0.276;2023-04-08T00:58:40;11.48;;;7.88;;
64738;SDS011;51175;51.186;0.276;2023-04-08T00:59:11;12.93;;;7.63;;
64738;SDS011;51175;51.186;0.276;2023-04-08T00:59:41;10.23;;;8.05;;
64738;SDS011;51175;51.186;0.276;2023-04-08T01:00:12;12.00;;;8.07;;
64738;SDS011;51175;51.186;0.276;2023-04-08T01:00:45;11.23;;;7.65;;
64738;SDS011;51175;51.186;0.276;2023-04-08T01:03:46;11.02;;;7.63;;
64738;SDS011;51175;51.186;0.276;2023-04-08T01:05:20;12.27;;;8.10;;
64738;SDS011;51175;51.186;0.276;2023-04-08T01:06:48;12.73;;;8.13;;
64738;SDS011;51175;51.186;0.276;2023-04-08T01:07:27;11.35;;;7.22;;
64738;SDS011;51175;51.186;0.276;2023-04-08T01:07:58;11.95;;;8.23;;
64738;SDS011;51175;51.186;0.276;2023-04-08T01:08:31;12.00;;;8.05;;
64738;SDS011;51175;51.186;0.276;2023-04-08T01:09:04;12.05;;;8.50;;
64738;SDS011;51175;51.186;0.276;2023-04-08T01:09:37;11.82;;;7.63;;
64738;SDS011;51175;51.186;0.276;2023-04-08T01:10:12;13.35;;;8.68;;
64738;SDS011;51175;51.186;0.276;2023-04-08T01:10:47;12.55;;;8.02;;
64738;SDS011;51175;51.186;0.276;2023-04-08T01:11:23;12.20;;;7.85;;
64738;SDS011;51175;51.186;0.276;2023-04-08T01:11:53;11.48;;;7.63;;
64738;SDS011;51175;51.186;0.276;2023-04-08T01:12:28;10.68;;;7.40;;
64738;SDS011;51175;51.186;0.276;2023-04-08T01:13:03;9.95;;;7.65;;
64738;SDS011;51175;51.186;0.276;2023-04-08T01:13:38;10.27;;;6.85;;
64738;SDS011;51175;51.186;0.276;2023-04-08T01:14:11;13.65;;;7.38;;
64738;SDS011;51175;51.186;0.276;2023-04-08T01:14:46;10.27;;;7.65;;
64738;SDS011;51175;51.186;0.276;2023-04-08T01:15:18;12.70;;;8.02;;
64738;SDS011;51175;51.186;0.276;2023-04-08T01:15:49;12.63;;;7.85;;
64738;SDS011;51175;51.186;0.276;2023-04-08T01:16:20;11.07;;;7.38;;
64738;SDS011;51175;51.186;0.276;2023-04-08T01:16:55;11.98;;;8.20;;
64738;SDS011;51175;51.186;0.276;2023-04-08T01:17:30;13.15;;;8.27;;
64738;SDS011;51175;51.186;0.276;2023-04-08T01:18:04;11.55;;;8.07;;
64738;SDS011;51175;51.186;0.276;2023-04-08T01:18:36;12.05;;;7.60;;
64738;SDS011;51175;51.186;0.276;2023-04-08T01:19:08;10.88;;;8.48;;
64738;SDS011;51175;51.186;0.276;2023-04-08T01:19:50;10.15;;;6.88;;
64738;SDS011;51175;51.186;0.276;2023-04-08T01:20:24;10.70;;;7.50;;
64738;SDS011;51175;51.186;0.276;2023-04-08T01:20:55;13.15;;;8.20;;
64738;SDS011;51175;51.186;0.276;2023-04-08T01:21:28;9.88;;;7.70;;
64738;SDS011;51175;51.186;0.276;2023-04-08T01:22:50;11.55;;;8.45;;
64738;SDS011;51175;51.186;0.276;2023-04-08T01:24:57;10.48;;;7.30;;
64738;SDS011;51175;51.186;0.276;2023-04-08T01:25:32;13.85;;;8.15;;
64738;SDS011;51175;51.186;0.276;2023-04-08T01:26:04;12.13;;;8.65;;
64738;SDS011;51175;51.186;0.276;2023-04-08T01:26:35;11.98;;;7.70;;
64738;SDS011;51175;51.186;0.276;2023-04-08T01:27:06;10.85;;;7.05;;
64738;SDS011;51175;51.186;0.276;2023-04-08T01:27:39;9.93;;;6.95;;
64738;SDS011;51175;51.186;0.276;2023-04-08T01:28:12;14.48;;;7.75;;
64738;SDS011;51175;51.186;0.276;2023-04-08T01:28:45;10.55;;;7.15;;
64738;SDS011;51175;51.186;0.276;2023-04-08T01:29:19;12.57;;;7.60;;
64738;SDS011;51175;51.186;0.276;2023-04-08T01:29:50;11.05;;;7.55;;
64738;SDS011;51175;51.186;0.276;2023-04-08T01:30:21;12.10;;;7.97;;
64738;SDS011;51175;51.186;0.276;2023-04-08T01:30:54;11.48;;;7.50;;
64738;SDS011;51175;51.186;0.276;2023-04-08T01:31:26;9.40;;;7.22;;
64738;SDS011;51175;51.186;0.276;2023-04-08T01:31:57;10.25;;;7.43;;
64738;SDS011;51175;51.186;0.276;2023-04-08T01:32:29;12.75;;;8.43;;
64738;SDS011;51175;51.186;0.276;2023-04-08T01:33:01;9.40;;;7.03;;
64738;SDS011;51175;51.186;0.276;2023-04-08T01:33:34;10.00;;;7.13;;
64738;SDS011;51175;51.186;0.276;2023-04-08T01:34:06;11.48;;;7.72;;
64738;SDS011;51175;51.186;0.276;2023-04-08T01:34:37;9.18;;;7.50;;
64738;SDS011;51175;51.186;0.276;2023-04-08T01:35:09;11.32;;;7.75;;
64738;SDS011;51175;51.186;0.276;2023-04-08T01:35:40;10.85;;;8.35;;
64738;SDS011;51175;51.186;0.276;2023-04-08T01:36:11;9.85;;;7.82;;
64738;SDS011;51175;51.186;0.276;2023-04-08T01:36:42;11.27;;;7.82;;
64738;SDS011;51175;51.186;0.276;2023-04-08T01:37:15;10.35;;;7.70;;
64738;SDS011;51175;51.186;0.276;2023-04-08T01:37:48;11.95;;;7.75;;
64738;SDS011;51175;51.186;0.276;2023-04-08T01:38:20;11.50;;;8.25;;
64738;SDS011;51175;51.186;0.276;2023-04-08T01:38:54;11.73;;;8.20;;
64738;SDS011;51175;51.186;0.276;2023-04-08T01:39:25;11.23;;;7.93;;
64738;SDS011;51175;51.186;0.276;2023-04-08T01:39:56;9.00;;;7.13;;
64738;SDS011;51175;51.186;0.276;2023-04-08T01:40:29;10.95;;;7.70;;
64738;SDS011;51175;51.186;0.276;2023-04-08T01:41:01;11.82;;;7.72;;
64738;SDS011;51175;51.186;0.276;2023-04-08T01:41:33;10.45;;;7.97;;
64738;SDS011;51175;51.186;0.276;2023-04-08T01:42:05;11.48;;;7.40;;
64738;SDS011;51175;51.186;0.276;2023-04-08T01:42:37;13.60;;;8.38;;
64738;SDS011;51175;51.186;0.276;2023-04-08T01:43:08;9.40;;;7.30;;
64738;SDS011;51175;51.186;0.276;2023-04-08T01:43:42;10.13;;;7.57;;
64738;SDS011;51175;51.186;0.276;2023-04-08T01:44:13;10.60;;;7.70;;
64738;SDS011;51175;51.186;0.276;2023-04-08T01:44:46;10.52;;;7.40;;
64738;SDS011;51175;51.186;0.276;2023-04-08T01:45:17;9.65;;;7.47;;
64738;SDS011;51175;51.186;0.276;2023-04-08T01:45:48;11.00;;;7.03;;
64738;SDS011;51175;51.186;0.276;2023-04-08T01:46:23;10.75;;;7.88;;
64738;SDS011;51175;51.186;0.276;2023-04-08T01:46:54;10.77;;;7.88;;
64738;SDS011;51175;51.186;0.276;2023-04-08T01:47:26;11.40;;;7.50;;
64738;SDS011;51175;51.186;0.276;2023-04-08T01:47:57;10.18;;;7.45;;
64738;SDS011;51175;51.186;0.276;2023-04-08T01:48:30;11.20;;;6.47;;
64738;SDS011;51175;51.186;0.276;2023-04-08T01:49:01;11.32;;;7.65;;
64738;SDS011;51175;51.186;0.276;2023-04-08T01:49:31;9.45;;;7.70;;
64738;SDS011;51175;51.186;0.276;2023-04-08T01:50:02;11.32;;;7.72;;
64738;SDS011;51175;51.186;0.276;2023-04-08T01:50:35;9.45;;;7.05;;
64738;SDS011;51175;51.186;0.276;2023-04-08T01:51:06;11.23;;;7.75;;
64738;SDS011;51175;51.186;0.276;2023-04-08T01:51:38;10.52;;;7.22;;
64738;SDS011;51175;51.186;0.276;2023-04-08T01:52:10;10.23;;;7.18;;
64738;SDS011;51175;51.186;0.276;2023-04-08T01:52:45;11.05;;;7.70;;
64738;SDS011;51175;51.186;0.276;2023-04-08T01:53:18;11.10;;;8.43;;
64738;SDS011;51175;51.186;0.276;2023-04-08T01:53:48;9.15;;;7.70;;
64738;SDS011;51175;51.186;0.276;2023-04-08T01:54:19;11.30;;;7.93;;
64738;SDS011;51175;51.186;0.276;2023-04-08T01:54:50;12.45;;;8.05;;
64738;SDS011;51175;51.186;0.276;2023-04-08T01:55:20;10.00;;;8.40;;
64738;SDS011;51175;51.186;0.276;2023-04-08T01:55:54;10.38;;;7.22;;
64738;SDS011;51175;51.186;0.276;2023-04-08T01:56:30;10.82;;;7.80;;
64738;SDS011;51175;51.186;0.276;2023-04-08T01:57:05;10.57;;;7.82;;
64738;SDS011;51175;51.186;0.276;2023-04-08T01:57:41;8.63;;;6.97;;
64738;SDS011;51175;51.186;0.276;2023-04-08T01:58:20;11.52;;;8.10;;
64738;SDS011;51175;51.186;0.276;2023-04-08T01:58:51;11.52;;;8.43;;
64738;SDS011;51175;51.186;0.276;2023-04-08T01:59:25;9.98;;;7.63;;
64738;SDS011;51175;51.186;0.276;2023-04-08T02:00:02;10.55;;;7.25;;
64738;SDS011;51175;51.186;0.276;2023-04-08T02:00:36;9.35;;;6.85;;
64738;SDS011;51175;51.186;0.276;2023-04-08T02:01:10;11.10;;;7.25;;
64738;SDS011;51175;51.186;0.276;2023-04-08T02:01:42;10.25;;;7.30;;
64738;SDS011;51175;51.186;0.276;2023-04-08T02:02:14;9.65;;;7.00;;
64738;SDS011;51175;51.186;0.276;2023-04-08T02:02:46;9.48;;;7.30;;
64738;SDS011;51175;51.186;0.276;2023-04-08T02:03:17;11.57;;;7.78;;
64738;SDS011;51175;51.186;0.276;2023-04-08T02:03:52;9.30;;;7.25;;
64738;SDS011;51175;51.186;0.276;2023-04-08T02:04:26;11.18;;;7.95;;
64738;SDS011;51175;51.186;0.276;2023-04-08T02:04:56;10.05;;;7.35;;
64738;SDS011;51175;51.186;0.276;2023-04-08T02:05:27;10.10;;;7.72;;
64738;SDS011;51175;51.186;0.276;2023-04-08T02:05:58;11.15;;;7.88;;
64738;SDS011;51175;51.186;0.276;2023-04-08T02:06:28;9.63;;;6.82;;
64738;SDS011;51175;51.186;0.276;2023-04-08T02:07:00;10.48;;;7.55;;
64738;SDS011;51175;51.186;0.276;2023-04-08T02:07:31;11.38;;;7.97;;
64738;SDS011;51175;51.186;0.276;2023-04-08T02:08:02;11.23;;;7.85;;
64738;SDS011;51175;51.186;0.276;2023-04-08T02:08:33;11.23;;;7.57;;
64738;SDS011;51175;51.186;0.276;2023-04-08T02:09:05;13.77;;;7.85;;
64738;SDS011;51175;51.186;0.276;2023-04-08T02:09:36;12.45;;;7.80;;
64738;SDS011;51175;51.186;0.276;2023-04-08T02:10:07;11.18;;;7.95;;
64738;SDS011;51175;51.186;0.276;2023-04-08T02:10:37;9.43;;;7.32;;
64738;SDS011;51175;51.186;0.276;2023-04-08T02:11:08;10.73;;;7.32;;
64738;SDS011;51175;51.186;0.276;2023-04-08T02:11:39;9.30;;;6.70;;
64738;SDS011;51175;51.186;0.276;2023-04-08T02:12:09;10.18;;;6.72;;
64738;SDS011;51175;51.186;0.276;2023-04-08T02:12:40;11.25;;;7.30;;
64738;SDS011;51175;51.186;0.276;2023-04-08T02:13:13;10.75;;;7.60;;
64738;SDS011;51175;51.186;0.276;2023-04-08T02:13:43;10.80;;;7.53;;
64738;SDS011;51175;51.186;0.276;2023-04-08T02:14:13;11.52;;;7.15;;
64738;SDS011;51175;51.186;0.276;2023-04-08T02:14:44;9.35;;;7.00;;
64738;SDS011;51175;51.186;0.276;2023-04-08T02:15:15;10.50;;;7.57;;
64738;SDS011;51175;51.186;0.276;2023-04-08T02:15:47;8.60;;;6.75;;
64738;SDS011;51175;51.186;0.276;2023-04-08T02:17:07;9.93;;;7.15;;
64738;SDS011;51175;51.186;0.276;2023-04-08T02:17:44;11.73;;;7.22;;
64738;SDS011;51175;51.186;0.276;2023-04-08T02:18:19;10.52;;;7.93;;
64738;SDS011;51175;51.186;0.276;2023-04-08T02:18:57;11.02;;;7.38;;
64738;SDS011;51175;51.186;0.276;2023-04-08T02:19:42;9.90;;;7.40;;
64738;SDS011;51175;51.186;0.276;2023-04-08T02:20:18;11.57;;;7.72;;
64738;SDS011;51175;51.186;0.276;2023-04-08T02:20:55;10.40;;;7.82;;
64738;SDS011;51175;51.186;0.276;2023-04-08T02:21:32;9.02;;;6.50;;
64738;SDS011;51175;51.186;0.276;2023-04-08T02:22:16;10.30;;;8.10;;
64738;SDS011;51175;51.186;0.276;2023-04-08T02:23:04;10.43;;;6.90;;
64738;SDS011;51175;51.186;0.276;2023-04-08T02:23:44;9.82;;;6.95;;
64738;SDS011;51175;51.186;0.276;2023-04-08T02:24:18;7.72;;;6.43;;
64738;SDS011;51175;51.186;0.276;2023-04-08T02:24:51;9.10;;;6.82;;
64738;SDS011;51175;51.186;0.276;2023-04-08T02:25:23;10.18;;;7.93;;
64738;SDS011;51175;51.186;0.276;2023-04-08T02:25:54;8.43;;;7.25;;
64738;SDS011;51175;51.186;0.276;2023-04-08T02:26:25;9.02;;;6.97;;
64738;SDS011;51175;51.186;0.276;2023-04-08T02:26:56;10.02;;;6.97;;
64738;SDS011;51175;51.186;0.276;2023-04-08T02:27:27;9.88;;;6.95;;
64738;SDS011;51175;51.186;0.276;2023-04-08T02:27:58;9.68;;;7.55;;
64738;SDS011;51175;51.186;0.276;2023-04-08T02:28:32;9.73;;;7.80;;
64738;SDS011;51175;51.186;0.276;2023-04-08T02:29:04;10.38;;;7.75;;
64738;SDS011;51175;51.186;0.276;2023-04-08T02:29:36;9.13;;;6.82;;
64738;SDS011;51175;51.186;0.276;2023-04-08T02:30:10;8.50;;;7.00;;
64738;SDS011;51175;51.186;0.276;2023-04-08T02:30:42;9.98;;;7.07;;
64738;SDS011;51175;51.186;0.276;2023-04-08T02:31:17;8.75;;;6.45;;
64738;SDS011;51175;51.186;0.276;2023-04-08T02:31:49;9.98;;;7.10;;
64738;SDS011;51175;51.186;0.276;2023-04-08T02:32:20;10.02;;;7.28;;
64738;SDS011;51175;51.186;0.276;2023-04-08T02:32:53;9.80;;;7.22;;
64738;SDS011;51175;51.186;0.276;2023-04-08T02:33:24;7.10;;;6.35;;
64738;SDS011;51175;51.186;0.276;2023-04-08T02:33:56;9.43;;;7.10;;
64738;SDS011;51175;51.186;0.276;2023-04-08T02:34:27;8.57;;;6.55;;
64738;SDS011;51175;51.186;0.276;2023-04-08T02:35:00;10.73;;;7.15;;
64738;SDS011;51175;51.186;0.276;2023-04-08T02:35:32;8.00;;;6.30;;
64738;SDS011;51175;51.186;0.276;2023-04-08T02:36:04;8.60;;;6.90;;
64738;SDS011;51175;51.186;0.276;2023-04-08T02:36:35;9.30;;;7.15;;
64738;SDS011;51175;51.186;0.276;2023-04-08T02:37:07;8.90;;;6.90;;
64738;SDS011;51175;51.186;0.276;2023-04-08T02:37:38;8.82;;;6.63;;
64738;SDS011;51175;51.186;0.276;2023-04-08T02:38:09;9.50;;;6.47;;
64738;SDS011;51175;51.186;0.276;2023-04-08T02:38:40;8.10;;;6.13;;
64738;SDS011;51175;51.186;0.276;2023-04-08T02:39:10;10.25;;;7.05;;
64738;SDS011;51175;51.186;0.276;2023-04-08T02:39:40;9.23;;;6.82;;
64738;SDS011;51175;51.186;0.276;2023-04-08T02:40:57;8.38;;;6.65;;
64738;SDS011;51175;51.186;0.276;2023-04-08T02:41:28;9.05;;;7.07;;
64738;SDS011;51175;51.186;0.276;2023-04-08T02:41:59;8.80;;;6.93;;
64738;SDS011;51175;51.186;0.276;2023-04-08T02:42:30;8.68;;;6.63;;
64738;SDS011;51175;51.186;0.276;2023-04-08T02:43:00;8.27;;;6.43;;
64738;SDS011;51175;51.186;0.276;2023-04-08T02:43:30;9.80;;;6.28;;
64738;SDS011;51175;51.186;0.276;2023-04-08T02:44:01;8.98;;;6.75;;
64738;SDS011;51175;51.186;0.276;2023-04-08T02:44:31;10.73;;;6.50;;
64738;SDS011;51175;51.186;0.276;2023-04-08T02:45:01;9.93;;;6.82;;
64738;SDS011;51175;51.186;0.276;2023-04-08T02:45:42;9.25;;;7.05;;
64738;SDS011;51175;51.186;0.276;2023-04-08T02:46:13;9.60;;;7.05;;
64738;SDS011;51175;51.186;0.276;2023-04-08T02:46:43;8.82;;;6.80;;
64738;SDS011;51175;51.186;0.276;2023-04-08T02:47:14;9.60;;;6.43;;
64738;SDS011;51175;51.186;0.276;2023-04-08T02:47:44;9.25;;;6.18;;
64738;SDS011;51175;51.186;0.276;2023-04-08T02:48:15;8.40;;;6.40;;
64738;SDS011;51175;51.186;0.276;2023-04-08T02:48:45;9.95;;;6.95;;
64738;SDS011;51175;51.186;0.276;2023-04-08T02:49:16;8.10;;;5.85;;
64738;SDS011;51175;51.186;0.276;2023-04-08T02:49:46;7.88;;;6.40;;
64738;SDS011;51175;51.186;0.276;2023-04-08T02:50:16;7.97;;;6.65;;
64738;SDS011;51175;51.186;0.276;2023-04-08T02:50:47;8.25;;;6.60;;
64738;SDS011;51175;51.186;0.276;2023-04-08T02:51:17;10.38;;;6.55;;
64738;SDS011;51175;51.186;0.276;2023-04-08T02:51:47;6.60;;;5.07;;
64738;SDS011;51175;51.186;0.276;2023-04-08T02:52:18;9.20;;;6.90;;
64738;SDS011;51175;51.186;0.276;2023-04-08T02:52:48;7.97;;;6.38;;
64738;SDS011;51175;51.186;0.276;2023-04-08T02:53:19;7.57;;;5.85;;
64738;SDS011;51175;51.186;0.276;2023-04-08T02:53:49;9.65;;;6.20;;
64738;SDS011;51175;51.186;0.276;2023-04-08T02:54:20;8.48;;;5.60;;
64738;SDS011;51175;51.186;0.276;2023-04-08T02:54:50;8.02;;;5.65;;
64738;SDS011;51175;51.186;0.276;2023-04-08T02:55:20;9.98;;;6.57;;
64738;SDS011;51175;51.186;0.276;2023-04-08T02:55:51;7.50;;;5.95;;
64738;SDS011;51175;51.186;0.276;2023-04-08T02:56:21;7.85;;;6.57;;
64738;SDS011;51175;51.186;0.276;2023-04-08T02:56:51;7.70;;;6.15;;
64738;SDS011;51175;51.186;0.276;2023-04-08T02:57:22;8.48;;;6.15;;
64738;SDS011;51175;51.186;0.276;2023-04-08T02:57:52;8.10;;;5.72;;
64738;SDS011;51175;51.186;0.276;2023-04-08T02:58:22;8.65;;;6.20;;
64738;SDS011;51175;51.186;0.276;2023-04-08T02:58:53;8.02;;;6.95;;
64738;SDS011;51175;51.186;0.276;2023-04-08T02:59:24;7.13;;;5.90;;
64738;SDS011;51175;51.186;0.276;2023-04-08T02:59:54;8.00;;;6.38;;
64738;SDS011;51175;51.186;0.276;2023-04-08T03:00:25;7.70;;;5.82;;
64738;SDS011;51175;51.186;0.276;2023-04-08T03:00:55;8.27;;;6.03;;
64738;SDS011;51175;51.186;0.276;2023-04-08T03:01:29;7.82;;;5.75;;
64738;SDS011;51175;51.186;0.276;2023-04-08T03:01:59;8.05;;;6.10;;
64738;SDS011;51175;51.186;0.276;2023-04-08T03:02:30;9.38;;;6.43;;
64738;SDS011;51175;51.186;0.276;2023-04-08T03:03:00;7.57;;;5.63;;
64738;SDS011;51175;51.186;0.276;2023-04-08T03:03:30;8.23;;;5.90;;
64738;SDS011;51175;51.186;0.276;2023-04-08T03:04:01;8.15;;;6.13;;
64738;SDS011;51175;51.186;0.276;2023-04-08T03:04:31;9.50;;;6.75;;
64738;SDS011;51175;51.186;0.276;2023-04-08T03:05:02;7.85;;;5.85;;
64738;SDS011;51175;51.186;0.276;2023-04-08T03:05:34;7.65;;;5.55;;
64738;SDS011;51175;51.186;0.276;2023-04-08T03:06:04;9.20;;;6.30;;
64738;SDS011;51175;51.186;0.276;2023-04-08T03:06:35;9.00;;;6.03;;
64738;SDS011;51175;51.186;0.276;2023-04-08T03:07:05;8.48;;;5.78;;
64738;SDS011;51175;51.186;0.276;2023-04-08T03:07:36;7.88;;;5.38;;
64738;SDS011;51175;51.186;0.276;2023-04-08T03:08:06;8.63;;;6.07;;
64738;SDS011;51175;51.186;0.276;2023-04-08T03:08:36;8.10;;;6.10;;
64738;SDS011;51175;51.186;0.276;2023-04-08T03:09:07;7.38;;;6.40;;
64738;SDS011;51175;51.186;0.276;2023-04-08T03:09:37;7.55;;;5.85;;
64738;SDS011;51175;51.186;0.276;2023-04-08T03:10:08;8.80;;;5.72;;
64738;SDS011;51175;51.186;0.276;2023-04-08T03:10:38;8.45;;;5.60;;
64738;SDS011;51175;51.186;0.276;2023-04-08T03:11:09;8.38;;;6.15;;
64738;SDS011;51175;51.186;0.276;2023-04-08T03:11:39;9.90;;;6.10;;
64738;SDS011;51175;51.186;0.276;2023-04-08T03:12:09;8.43;;;5.57;;
64738;SDS011;51175;51.186;0.276;2023-04-08T03:12:40;7.95;;;6.32;;
64738;SDS011;51175;51.186;0.276;2023-04-08T03:13:10;7.82;;;5.93;;
64738;SDS011;51175;51.186;0.276;2023-04-08T03:13:40;8.65;;;6.47;;
64738;SDS011;51175;51.186;0.276;2023-04-08T03:14:11;9.77;;;6.28;;
64738;SDS011;51175;51.186;0.276;2023-04-08T03:14:41;8.00;;;6.05;;
64738;SDS011;51175;51.186;0.276;2023-04-08T03:15:11;8.10;;;6.18;;
64738;SDS011;51175;51.186;0.276;2023-04-08T03:15:42;9.18;;;5.78;;
64738;SDS011;51175;51.186;0.276;2023-04-08T03:16:12;8.70;;;6.15;;
64738;SDS011;51175;51.186;0.276;2023-04-08T03:16:43;8.40;;;6.65;;